Katerina — P3UG9 — position and weather

sailwx.info

Track history (hours):
 
Tides and Currents Weather Stations Pressure Air Temp Water Temp Dewpoint Dewpoint Depression Visibility Wind Speed Wind Dir Waves Ship Positions

Katerina

Last reported at 2017-Oct-03 06:59 UTC. Time now 2017-Oct-20 12:48 UTC.
Position N 38°53' W 031°21'.
Warning: this ship's position is 17 days out of date.

Length 225 m; draft 8.5 m.

Type: Cargo ship. MMSI: 209026000.

Date/timePositionNaut miles runAvg speedWind from/ knotsBaromVisibWave heightAir tempDewpointWater temp
2017-Oct-03 06:59N 38°53' W 031°21'713.3
2017-Oct-03 06:29N 38°55' W 031°13'713.3
2017-Oct-03 05:59N 38°58' W 031°05'1013.0
2017-Oct-03 05:12N 39°01' W 030°53'312.7
2017-Oct-03 05:00N 39°02' W 030°50'713.3
2017-Oct-03 04:30N 39°04' W 030°42'713.2
2017-Oct-03 04:00N 39°06' W 030°34'713.2
2017-Oct-03 03:30N 39°09' W 030°26'713.1
2017-Oct-03 03:00N 39°11' W 030°18'713.3
2017-Oct-03 02:30N 39°13' W 030°09'713.6
2017-Oct-03 02:00N 39°14' W 030°01'713.3
2017-Oct-03 01:30N 39°17' W 029°53'713.1
2017-Oct-03 01:00N 39°19' W 029°45'713.4
2017-Oct-03 00:30N 39°21' W 029°37'713.4
2017-Oct-03 00:00N 39°24' W 029°29'713.1
2017-Oct-02 23:30N 39°26' W 029°21'713.1
2017-Oct-02 23:00N 39°29' W 029°13'713.1
2017-Oct-02 22:30N 39°31' W 029°05'713.2
2017-Oct-02 22:00N 39°33' W 028°57'713.1
2017-Oct-02 21:30N 39°36' W 028°49'612.7
2017-Oct-02 21:01N 39°38' W 028°42'612.9
2017-Oct-02 20:30N 39°41' W 028°34'712.8
2017-Oct-02 20:00N 39°43' W 028°26'612.9
2017-Oct-02 19:31N 39°46' W 028°19'712.9
2017-Oct-02 19:00N 39°48' W 028°11'713.1
2017-Oct-02 18:30N 39°51' W 028°03'612.7
2017-Oct-02 18:01N 39°53' W 027°55'5612.4
2017-Oct-02 13:27N 40°14' W 026°47'811.9
2017-Oct-02 12:48N 40°17' W 026°37'611.9
2017-Oct-02 12:18N 40°19' W 026°30'711.8
2017-Oct-02 11:43N 40°22' W 026°22'  
2017-Sep-24 07:24N 43°44' W 007°27'1 2.7
2017-Sep-24 07:00N 43°45' W 007°26'1 0.9
2017-Sep-24 05:47N 43°44' W 007°25'0 0.0
2017-Sep-24 05:23N 43°44' W 007°25'0 0.0
2017-Sep-24 04:44N 43°44' W 007°25'0 0.1
2017-Sep-24 02:59N 43°44' W 007°25'  
Track history (hours):
 
Tides and Currents Weather Stations Pressure Air Temp Water Temp Dewpoint Dewpoint Depression Visibility Wind Speed Wind Dir Waves Ship Positions

Katerina

Last reported at 2017-Oct-03 06:59 UTC. Time now 2017-Oct-20 12:48 UTC.
Position N 38°53' W 031°21'.
Warning: this ship's position is 17 days out of date.

Length 225 m; draft 8.5 m.

Type: Cargo ship. MMSI: 209026000.

Date/timePositionNaut miles runAvg speedWind from/ knotsBaromVisibWave heightAir tempDewpointWater temp
2017-Oct-03 06:59N 38°53' W 031°21'713.3
2017-Oct-03 06:29N 38°55' W 031°13'713.3
2017-Oct-03 05:59N 38°58' W 031°05'1013.0
2017-Oct-03 05:12N 39°01' W 030°53'312.7
2017-Oct-03 05:00N 39°02' W 030°50'713.3
2017-Oct-03 04:30N 39°04' W 030°42'713.2
2017-Oct-03 04:00N 39°06' W 030°34'713.2
2017-Oct-03 03:30N 39°09' W 030°26'713.1
2017-Oct-03 03:00N 39°11' W 030°18'713.3
2017-Oct-03 02:30N 39°13' W 030°09'713.6
2017-Oct-03 02:00N 39°14' W 030°01'713.3
2017-Oct-03 01:30N 39°17' W 029°53'713.1
2017-Oct-03 01:00N 39°19' W 029°45'713.4
2017-Oct-03 00:30N 39°21' W 029°37'713.4
2017-Oct-03 00:00N 39°24' W 029°29'713.1
2017-Oct-02 23:30N 39°26' W 029°21'713.1
2017-Oct-02 23:00N 39°29' W 029°13'713.1
2017-Oct-02 22:30N 39°31' W 029°05'713.2
2017-Oct-02 22:00N 39°33' W 028°57'713.1
2017-Oct-02 21:30N 39°36' W 028°49'612.7
2017-Oct-02 21:01N 39°38' W 028°42'612.9
2017-Oct-02 20:30N 39°41' W 028°34'712.8
2017-Oct-02 20:00N 39°43' W 028°26'612.9
2017-Oct-02 19:31N 39°46' W 028°19'712.9
2017-Oct-02 19:00N 39°48' W 028°11'713.1
2017-Oct-02 18:30N 39°51' W 028°03'612.7
2017-Oct-02 18:01N 39°53' W 027°55'5612.4
2017-Oct-02 13:27N 40°14' W 026°47'811.9
2017-Oct-02 12:48N 40°17' W 026°37'611.9
2017-Oct-02 12:18N 40°19' W 026°30'711.8
2017-Oct-02 11:43N 40°22' W 026°22'  
2017-Sep-24 07:24N 43°44' W 007°27'1 2.7
2017-Sep-24 07:00N 43°45' W 007°26'1 0.9
2017-Sep-24 05:47N 43°44' W 007°25'0 0.0
2017-Sep-24 05:23N 43°44' W 007°25'0 0.0
2017-Sep-24 04:44N 43°44' W 007°25'0 0.1
2017-Sep-24 02:59N 43°44' W 007°25'  

Dump ship's entire track history